Отчет УТП Минеральные Воды 31.07.2022

31 Июля 2022 года с 17 до 19 UTC в аэропорту Минеральных Вод (URMM) прошли учебно-тренировочные полеты в сети IVAO.

В работе был Минводы-Старт, Минводы-Подход и Ростов-Контроль.

Погода во время УТП:

METAR URMM 311800Z 10004MPS 9999 NSC 27/12 Q1009
R12/090070 NOSIG RMK QFE729/0972=

Движение в воздухе было загруженным, 4 борта курсантов выполняли полёты.

После полётов курсантов ожидал разбор полётов, где каждый услышал замечания от Инструктора.